Time;durP1;ratioP1;P1;durP2;ratioP2;P2;SDS_P1;SDS_P2;PMS_P1;PMS_P2;Temp;Humidity;BMP_temperature;BMP_pressure;BME280_temperature;BME280_humidity;BME280_pressure;Samples;Min_cycle;Max_cycle;Signal;HPM_P1;HPM_P2
2022/12/01 07:06:40;;;;;;;38.58;24.70;;;;;;;6.34;100.00;102543.34;5321395;27;20362;-75
2022/12/01 07:09:18;;;;;;;37.33;24.98;;;;;;;6.33;100.00;102547.16;5301828;28;20032;-76
2022/12/01 07:11:49;;;;;;;37.60;24.67;;;;;;;6.30;100.00;102558.63;5300271;28;20028;-75
2022/12/01 07:14:23;;;;;;;36.80;24.17;;;;;;;6.32;100.00;102557.34;5300579;28;20039;-76
2022/12/01 07:16:55;;;;;;;38.65;26.92;;;;;;;6.27;100.00;102559.91;5299608;28;20027;-77
2022/12/01 07:19:26;;;;;;;38.97;25.48;;;;;;;6.35;100.00;102558.81;5300541;28;20028;-76
2022/12/01 07:21:57;;;;;;;35.50;24.70;;;;;;;6.37;100.00;102553.09;5301304;28;20034;-77
2022/12/01 07:24:29;;;;;;;34.00;23.25;;;;;;;6.44;100.00;102567.66;5299614;28;20351;-77
2022/12/01 07:27:01;;;;;;;33.95;23.98;;;;;;;6.44;100.00;102560.25;5300696;28;20028;-77
2022/12/01 07:29:32;;;;;;;35.28;24.10;;;;;;;6.50;100.00;102564.88;5301354;28;20436;-77
2022/12/01 07:32:04;;;;;;;33.53;22.92;;;;;;;6.55;100.00;102571.66;5299949;28;20029;-77
2022/12/01 07:34:35;;;;;;;37.05;24.83;;;;;;;6.55;100.00;102572.50;5300945;28;20542;-78
2022/12/01 07:37:06;;;;;;;32.72;23.88;;;;;;;6.61;100.00;102570.75;5300353;28;20020;-78
2022/12/01 07:39:38;;;;;;;38.03;25.27;;;;;;;6.66;99.58;102562.66;5298962;28;20067;-77
2022/12/01 07:42:09;;;;;;;33.90;23.52;;;;;;;6.69;99.49;102562.22;5300661;28;20122;-78
2022/12/01 07:44:40;;;;;;;28.27;20.63;;;;;;;7.00;100.00;102575.16;5298761;28;20032;-79
2022/12/01 07:47:13;;;;;;;33.53;22.50;;;;;;;6.80;100.00;102572.56;5300720;28;20078;-78
2022/12/01 07:49:44;;;;;;;40.22;26.27;;;;;;;6.88;100.00;102571.44;5300625;28;20020;-78
2022/12/01 07:52:15;;;;;;;32.58;23.45;;;;;;;6.91;99.86;102574.59;5299243;28;20185;-77
2022/12/01 07:54:47;;;;;;;34.90;23.88;;;;;;;6.81;97.67;102577.00;5300642;28;20036;-78
2022/12/01 07:57:19;;;;;;;40.78;26.55;;;;;;;6.85;98.33;102583.78;5299882;28;20031;-77
2022/12/01 07:59:51;;;;;;;38.90;24.30;;;;;;;6.88;98.49;102583.31;5299354;28;20383;-77
2022/12/01 08:02:23;;;;;;;33.92;23.83;;;;;;;6.73;96.92;102578.09;5300415;28;20035;-77
2022/12/01 08:04:54;;;;;;;35.40;25.30;;;;;;;6.84;98.41;102581.22;5306584;28;20044;-77
2022/12/01 08:07:25;;;;;;;31.35;24.13;;;;;;;6.89;98.07;102585.00;5320680;28;20382;-82
2022/12/01 08:09:56;;;;;;;33.78;24.17;;;;;;;6.79;96.84;102590.16;5321792;28;20107;-77
2022/12/01 08:12:34;;;;;;;30.77;23.88;;;;;;;6.82;96.91;102592.47;5321324;28;20029;-77
2022/12/01 08:15:05;;;;;;;33.95;24.70;;;;;;;6.78;96.93;102594.00;5319697;28;20020;-77
2022/12/01 08:17:37;;;;;;;35.67;24.15;;;;;;;6.88;96.95;102591.59;5309066;28;20051;-76
2022/12/01 08:20:08;;;;;;;34.30;23.80;;;;;;;6.84;96.93;102604.13;5306465;28;20087;-78
2022/12/01 08:22:40;;;;;;;36.10;26.50;;;;;;;6.87;96.37;102598.16;5306478;28;20486;-78
2022/12/01 08:25:11;;;;;;;33.92;25.17;;;;;;;6.89;96.30;102598.78;5307470;28;20051;-79
2022/12/01 08:27:43;;;;;;;36.22;24.85;;;;;;;6.96;96.32;102596.00;5299719;28;20119;-78
2022/12/01 08:30:17;;;;;;;34.67;24.60;;;;;;;6.93;95.82;102596.44;5304259;28;20389;-72
2022/12/01 08:32:52;;;;;;;32.80;24.02;;;;;;;6.96;95.64;102598.75;5306400;28;20382;-74
2022/12/01 08:35:24;;;;;;;34.42;24.60;;;;;;;6.89;94.85;102609.81;5305811;28;20085;-74
2022/12/01 08:37:55;;;;;;;34.50;23.50;;;;;;;6.82;94.32;102606.25;5304891;28;20016;-75
2022/12/01 08:40:27;;;;;;;35.80;24.10;;;;;;;6.85;94.58;102610.47;5306458;28;20447;-77
2022/12/01 08:42:58;;;;;;;33.53;25.65;;;;;;;6.88;94.46;102612.81;5305624;28;20039;-77
2022/12/01 08:45:30;;;;;;;30.67;24.17;;;;;;;7.01;95.19;102609.13;5306376;28;20036;-77
2022/12/01 08:48:02;;;;;;;35.58;25.23;;;;;;;7.02;94.98;102606.13;5305527;28;20016;-76
2022/12/01 08:50:35;;;;;;;32.88;25.23;;;;;;;6.94;94.34;102607.25;5306487;28;20028;-77
2022/12/01 08:53:08;;;;;;;36.00;25.08;;;;;;;7.00;94.01;102618.44;5303131;28;20024;-77
2022/12/01 08:55:39;;;;;;;32.92;24.30;;;;;;;6.92;94.67;102612.13;5304987;28;20032;-77
2022/12/01 08:58:11;;;;;;;33.78;26.75;;;;;;;6.97;95.31;102609.53;5306059;28;20360;-77
2022/12/01 09:00:43;;;;;;;30.17;23.52;;;;;;;7.00;94.60;102607.41;5305894;28;20064;-77
2022/12/01 09:03:17;;;;;;;33.33;23.48;;;;;;;7.00;95.18;102612.94;5305138;28;20502;-76
2022/12/01 09:05:48;;;;;;;32.88;24.00;;;;;;;7.06;95.54;102601.88;5305611;28;20097;-77
2022/12/01 09:08:32;;;;;;;35.35;24.15;;;;;;;7.03;94.82;102610.59;5305603;28;20016;-77
2022/12/01 09:11:09;;;;;;;37.15;29.17;;;;;;;7.16;95.43;102606.88;5305042;28;20062;-77
2022/12/01 09:13:42;;;;;;;35.83;28.55;;;;;;;7.22;95.63;102614.25;5305806;28;20119;-77
2022/12/01 09:16:15;;;;;;;64.93;52.78;;;;;;;7.17;94.38;102609.41;5304277;28;20429;-73
2022/12/01 09:18:46;;;;;;;32.83;24.58;;;;;;;7.21;93.65;102612.59;5305801;28;20101;-73
2022/12/01 09:21:24;;;;;;;31.15;25.35;;;;;;;7.15;93.06;102616.22;5305497;28;20016;-72
2022/12/01 09:23:56;;;;;;;32.03;24.20;;;;;;;7.14;93.59;102614.53;5304136;28;20027;-72
2022/12/01 09:26:28;;;;;;;33.65;23.23;;;;;;;7.18;93.17;102615.75;5305059;28;20021;-74
2022/12/01 09:29:02;;;;;;;32.63;24.13;;;;;;;7.28;94.07;102618.03;5304375;28;20024;-75
2022/12/01 09:31:35;;;;;;;32.55;25.05;;;;;;;7.32;93.00;102620.13;5302622;28;20028;-75
2022/12/01 09:34:10;;;;;;;33.60;23.58;;;;;;;7.32;92.27;102611.84;5304829;28;20020;-75
2022/12/01 09:36:42;;;;;;;34.67;26.45;;;;;;;7.24;92.05;102619.56;5305579;28;20023;-74
2022/12/01 09:39:19;;;;;;;34.45;24.52;;;;;;;7.19;92.40;102628.50;5304129;28;20027;-73
2022/12/01 09:41:58;;;;;;;28.67;22.20;;;;;;;7.31;91.75;102623.97;5305572;28;20409;-73
2022/12/01 09:44:47;;;;;;;33.05;27.40;;;;;;;7.32;92.05;102631.16;5304707;28;20078;-73
2022/12/01 09:47:24;;;;;;;32.38;23.05;;;;;;;7.25;92.44;102624.84;5305270;28;20027;-73
2022/12/01 09:50:08;;;;;;;33.42;25.05;;;;;;;7.40;92.12;102625.34;5305273;28;20071;-73
2022/12/01 09:52:46;;;;;;;31.10;23.58;;;;;;;7.31;91.56;102621.22;5302917;28;20036;-75
2022/12/01 09:55:20;;;;;;;31.92;23.35;;;;;;;7.34;91.50;102615.22;5304402;28;20026;-74
2022/12/01 09:57:55;;;;;;;35.15;25.65;;;;;;;7.37;91.44;102619.47;5305141;28;20028;-73
2022/12/01 10:00:31;;;;;;;35.00;25.67;;;;;;;7.28;92.13;102613.34;5303613;28;20020;-74
2022/12/01 10:03:15;;;;;;;32.40;24.08;;;;;;;7.32;91.32;102611.84;5304541;28;20111;-74
2022/12/01 10:06:14;;;;;;;34.80;27.08;;;;;;;7.43;91.29;102613.03;5303714;28;20105;-75
2022/12/01 10:09:05;;;;;;;31.45;24.65;;;;;;;7.30;92.15;102608.47;5304381;28;20455;-76
2022/12/01 10:11:40;;;;;;;34.92;24.88;;;;;;;7.28;91.37;102607.84;5304417;28;20394;-74
2022/12/01 10:14:17;;;;;;;36.10;25.93;;;;;;;7.36;91.81;102606.72;5303794;28;20032;-73
2022/12/01 10:16:57;;;;;;;35.47;26.42;;;;;;;7.39;91.37;102611.81;5304359;28;20297;-73
2022/12/01 10:19:38;;;;;;;34.72;25.48;;;;;;;7.30;90.72;102607.63;5304041;28;20390;-73
2022/12/01 10:22:30;;;;;;;33.65;24.52;;;;;;;7.36;91.63;102607.56;5304572;28;20339;-73
2022/12/01 10:25:20;;;;;;;36.42;27.67;;;;;;;7.39;91.22;102603.53;5303746;28;20036;-73
2022/12/01 10:28:03;;;;;;;38.40;26.55;;;;;;;7.44;90.29;102603.69;5304350;28;20028;-73
2022/12/01 10:30:42;;;;;;;37.28;26.33;;;;;;;7.44;89.39;102602.81;5304483;28;20028;-73
2022/12/01 10:33:29;;;;;;;40.08;26.90;;;;;;;7.46;90.02;102603.44;5304647;28;20016;-73
2022/12/01 10:36:00;;;;;;;36.05;26.77;;;;;;;7.48;90.31;102593.03;5305501;28;20028;-73
2022/12/01 10:38:35;;;;;;;33.45;24.90;;;;;;;7.53;89.94;102582.97;5306813;28;20379;-74
2022/12/01 10:41:13;;;;;;;38.07;26.87;;;;;;;7.58;89.24;102579.56;5309264;28;20126;-76
2022/12/01 10:43:56;;;;;;;37.90;26.55;;;;;;;7.59;88.58;102578.47;5306426;28;20351;-75
2022/12/01 10:46:38;;;;;;;34.17;26.10;;;;;;;7.50;88.21;102579.84;5305959;28;20427;-73
2022/12/01 10:49:12;;;;;;;42.50;30.50;;;;;;;7.56;88.34;102578.94;5304241;28;20220;-74
2022/12/01 10:51:55;;;;;;;37.40;26.85;;;;;;;7.47;87.39;102583.06;5289254;28;20024;-72
2022/12/01 10:54:36;;;;;;;35.67;27.00;;;;;;;7.56;88.07;102578.94;5303545;28;20122;-72
2022/12/01 10:57:16;;;;;;;38.78;29.13;;;;;;;7.47;87.95;102575.63;5304059;28;20036;-73
2022/12/01 10:59:56;;;;;;;37.78;26.33;;;;;;;7.61;88.01;102579.09;5304378;28;20107;-72
2022/12/01 11:02:30;;;;;;;37.78;25.40;;;;;;;7.52;88.00;102577.72;5303886;28;20368;-73
2022/12/01 11:05:04;;;;;;;35.08;25.92;;;;;;;7.60;89.81;102574.66;5304133;28;20088;-73
2022/12/01 11:07:45;;;;;;;38.23;26.27;;;;;;;7.71;88.75;102575.81;5304600;28;20110;-75
2022/12/01 11:10:19;;;;;;;37.80;26.77;;;;;;;7.68;88.72;102566.06;5294960;28;20282;-72
2022/12/01 11:13:22;;;;;;;35.72;26.33;;;;;;;7.89;88.85;102567.53;5303998;28;20477;-75
2022/12/01 11:15:59;;;;;;;40.35;27.92;;;;;;;7.72;87.54;102570.06;5309539;28;20047;-75
2022/12/01 11:18:34;;;;;;;36.10;26.02;;;;;;;7.79;87.91;102568.06;5325136;28;20024;-73
2022/12/01 11:21:25;;;;;;;35.47;25.45;;;;;;;7.83;88.68;102561.00;5318995;28;20027;-73
2022/12/01 11:23:56;;;;;;;30.45;21.55;;;;;;;8.16;93.01;102567.25;5314062;28;20032;-71
2022/12/01 11:26:33;;;;;;;32.40;24.55;;;;;;;7.85;89.47;102566.31;5310946;28;20036;-75
2022/12/01 11:29:20;;;;;;;38.45;26.25;;;;;;;7.90;88.34;102560.94;5320824;28;20024;-73
2022/12/01 11:31:56;;;;;;;37.60;26.48;;;;;;;7.72;89.05;102550.75;5324606;28;20016;-73
2022/12/01 11:34:30;;;;;;;36.03;26.27;;;;;;;7.73;88.51;102563.47;5321942;28;20028;-74
2022/12/01 11:37:05;;;;;;;34.33;24.85;;;;;;;7.71;88.83;102560.06;5324228;28;20026;-74
2022/12/01 11:39:39;;;;;;;33.13;24.60;;;;;;;7.80;88.23;102552.34;5323160;28;20031;-71
2022/12/01 11:42:13;;;;;;;37.83;25.98;;;;;;;7.84;88.03;102548.03;5321794;28;20038;-71
2022/12/01 11:45:17;;;;;;;36.10;25.40;;;;;;;7.84;87.65;102545.28;5323948;28;20031;-72
2022/12/01 11:48:03;;;;;;;34.78;25.67;;;;;;;7.83;88.11;102540.84;5313257;28;20052;-72
2022/12/01 11:50:36;;;;;;;36.47;24.17;;;;;;;7.84;87.97;102537.81;5297455;28;20040;-75
2022/12/01 11:53:28;;;;;;;31.88;24.33;;;;;;;7.95;88.10;102532.59;5304581;28;20027;-73
2022/12/01 11:56:19;;;;;;;34.53;25.75;;;;;;;7.94;88.61;102544.75;5307471;28;20082;-73
2022/12/01 11:59:00;;;;;;;35.42;26.60;;;;;;;7.85;89.04;102533.16;5316736;28;20106;-73
2022/12/01 12:01:51;;;;;;;36.78;25.08;;;;;;;7.98;89.21;102533.00;5309352;28;20352;-72
2022/12/01 12:04:37;;;;;;;71.88;55.53;;;;;;;7.84;88.36;102537.00;5300689;28;20516;-73
2022/12/01 12:07:46;;;;;;;52.50;41.28;;;;;;;7.92;88.70;102533.06;5307426;28;20518;-72
2022/12/01 12:10:49;;;;;;;35.95;25.13;;;;;;;7.94;89.17;102525.41;5307907;28;20077;-73
2022/12/01 12:13:58;;;;;;;36.60;27.08;;;;;;;7.91;88.66;102529.47;5294608;28;20040;-72
2022/12/01 12:16:41;;;;;;;37.20;25.05;;;;;;;7.97;88.91;102525.78;5307831;28;20110;-74
2022/12/01 12:19:28;;;;;;;40.33;25.85;;;;;;;8.03;88.32;102527.63;5306959;28;20031;-73
2022/12/01 12:21:59;;;;;;;33.72;24.50;;;;;;;8.02;88.36;102527.84;5307081;28;20032;-73
2022/12/01 12:25:07;;;;;;;36.70;24.95;;;;;;;8.10;87.67;102513.72;5307094;28;20027;-74
2022/12/01 12:27:46;;;;;;;35.60;24.42;;;;;;;8.10;87.27;102524.75;5306759;28;20039;-75
2022/12/01 12:30:25;;;;;;;33.83;24.15;;;;;;;7.96;86.20;102512.22;5307427;28;20111;-74
2022/12/01 12:33:08;;;;;;;44.33;36.28;;;;;;;8.06;86.37;102520.78;5300732;28;20492;-75
2022/12/01 12:35:57;;;;;;;29.92;22.27;;;;;;;8.09;85.03;102516.72;5285909;28;20032;-75
2022/12/01 12:39:11;;;;;;;28.55;20.65;;;;;;;8.03;84.05;102513.81;5299600;28;20024;-74
2022/12/01 12:41:45;;;;;;;26.95;21.10;;;;;;;7.98;83.46;102516.44;5304434;28;20032;-75
2022/12/01 12:44:22;;;;;;;28.02;20.20;;;;;;;7.93;82.52;102507.16;5306084;28;20044;-72
2022/12/01 12:47:05;;;;;;;29.63;22.77;;;;;;;7.98;82.83;102510.06;5304488;28;20040;-74
2022/12/01 12:49:51;;;;;;;27.55;21.50;;;;;;;8.00;83.68;102510.66;5306331;28;20077;-76
2022/12/01 12:52:24;;;;;;;;;;;;;;;8.10;83.69;102497.13;5297363;28;20528;-74
2022/12/01 12:55:12;;;;;;;29.63;22.02;;;;;;;8.03;83.71;102499.16;5303009;28;20280;-74
2022/12/01 12:58:15;;;;;;;31.42;20.83;;;;;;;8.04;83.71;102493.38;5306837;28;20091;-73
2022/12/01 13:01:17;;;;;;;30.73;22.40;;;;;;;8.07;84.23;102489.31;5306338;28;20024;-74
2022/12/01 13:03:59;;;;;;;33.85;23.40;;;;;;;7.97;83.62;102491.78;5294261;28;20418;-74
2022/12/01 13:06:51;;;;;;;35.72;23.15;;;;;;;8.07;83.23;102497.59;5306668;28;20445;-74
2022/12/01 13:09:31;;;;;;;30.90;22.75;;;;;;;7.95;84.22;102494.78;5304120;28;20016;-75
2022/12/01 13:12:19;;;;;;;28.58;20.52;;;;;;;8.44;90.46;102494.81;5305082;28;20382;-73
2022/12/01 13:14:58;;;;;;;35.40;24.73;;;;;;;8.20;83.92;102491.88;5306374;28;20107;-75
2022/12/01 13:17:37;;;;;;;29.88;21.88;;;;;;;8.20;82.30;102491.06;5305394;28;20028;-74
2022/12/01 13:20:14;;;;;;;32.22;21.85;;;;;;;8.07;82.35;102486.53;5305768;28;20096;-75
2022/12/01 13:22:46;;;;;;;31.25;23.70;;;;;;;8.11;82.25;102490.53;5303752;28;20483;-75
2022/12/01 13:25:27;;;;;;;32.45;23.50;;;;;;;8.14;82.09;102481.78;5305231;28;20038;-75
2022/12/01 13:28:02;;;;;;;30.98;22.17;;;;;;;8.20;83.88;102483.59;5305251;28;20035;-74
2022/12/01 13:30:33;;;;;;;30.38;22.33;;;;;;;8.00;81.62;102472.84;5304084;28;20061;-74
2022/12/01 13:33:05;;;;;;;31.65;23.58;;;;;;;8.11;82.81;102473.97;5304635;28;20048;-70
2022/12/01 13:35:37;;;;;;;34.47;25.33;;;;;;;8.21;82.94;102477.00;5302917;28;20495;-73
2022/12/01 13:38:29;;;;;;;34.47;22.48;;;;;;;8.13;82.01;102473.72;5292637;28;20037;-72
2022/12/01 13:41:18;;;;;;;31.02;22.52;;;;;;;8.11;80.96;102462.91;5303718;28;20036;-72
2022/12/01 13:43:55;;;;;;;28.90;22.27;;;;;;;8.06;82.02;102460.00;5304283;28;20028;-72
2022/12/01 13:46:41;;;;;;;29.65;22.63;;;;;;;8.18;82.39;102471.97;5304459;28;20050;-73
2022/12/01 13:49:37;;;;;;;29.73;21.58;;;;;;;8.28;82.06;102466.72;5304972;28;20024;-72
2022/12/01 13:52:25;;;;;;;33.43;24.03;;;;;;;8.22;82.61;102461.25;5304145;28;20021;-72
2022/12/01 13:55:08;;;;;;;32.38;22.25;;;;;;;8.15;82.04;102461.34;5304973;28;20105;-71
2022/12/01 13:57:46;;;;;;;29.42;22.20;;;;;;;8.11;81.62;102457.38;5304208;28;20360;-72
2022/12/01 14:00:28;;;;;;;30.05;21.55;;;;;;;8.13;81.79;102458.00;5304319;28;20073;-71
2022/12/01 14:03:11;;;;;;;29.80;22.23;;;;;;;8.26;81.36;102465.25;5305461;28;20111;-77
2022/12/01 14:05:52;;;;;;;33.17;25.27;;;;;;;8.06;80.85;102457.25;5303251;28;20101;-74
2022/12/01 14:08:33;;;;;;;34.08;26.35;;;;;;;8.22;80.39;102458.50;5300514;28;20479;-74
2022/12/01 14:11:20;;;;;;;33.13;23.75;;;;;;;8.33;81.09;102457.69;5304649;28;20059;-73
2022/12/01 14:14:16;;;;;;;34.38;27.33;;;;;;;8.37;81.14;102469.13;5303393;28;20024;-73
2022/12/01 14:16:51;;;;;;;30.35;23.35;;;;;;;8.38;80.46;102459.75;5297905;28;20066;-76
2022/12/01 14:19:35;;;;;;;30.35;22.83;;;;;;;8.30;80.62;102462.84;5296608;28;20111;-75
2022/12/01 14:22:40;;;;;;;28.73;21.13;;;;;;;8.26;80.38;102456.97;5304319;28;20036;-75
2022/12/01 14:25:24;;;;;;;31.63;23.00;;;;;;;8.01;80.41;102463.47;5302665;28;20583;-75
2022/12/01 14:28:01;;;;;;;30.50;21.60;;;;;;;8.00;81.18;102469.22;5284165;28;20036;-75
2022/12/01 14:30:44;;;;;;;29.27;21.58;;;;;;;8.14;80.98;102467.97;5299178;28;20024;-74
2022/12/01 14:33:37;;;;;;;29.05;20.98;;;;;;;8.13;81.27;102477.34;5301652;28;20059;-74
2022/12/01 14:36:40;;;;;;;32.10;23.98;;;;;;;8.04;81.40;102470.44;5303934;28;20408;-75
2022/12/01 14:39:16;;;;;;;29.75;22.23;;;;;;;7.98;81.04;102466.69;5304286;28;20016;-75
2022/12/01 14:41:51;;;;;;;27.35;22.40;;;;;;;7.98;81.33;102468.63;5302928;28;20047;-75
2022/12/01 14:44:33;;;;;;;29.20;21.33;;;;;;;7.93;81.68;102462.94;5304090;28;20092;-73
2022/12/01 14:47:16;;;;;;;31.05;21.75;;;;;;;7.94;82.15;102475.69;5302033;28;20036;-72
2022/12/01 14:50:40;;;;;;;35.30;24.98;;;;;;;8.04;82.34;102471.28;5294077;28;20032;-73
2022/12/01 14:53:24;;;;;;;29.48;21.50;;;;;;;7.97;82.10;102469.69;5263116;28;20391;-72
2022/12/01 14:56:07;;;;;;;30.35;22.13;;;;;;;8.00;82.53;102469.22;5303359;28;20031;-73
2022/12/01 14:58:59;;;;;;;33.72;24.02;;;;;;;8.03;83.27;102466.00;5301980;28;20031;-73
2022/12/01 15:01:36;;;;;;;34.35;23.33;;;;;;;7.93;83.92;102460.19;5302960;28;20024;-72
2022/12/01 15:04:13;;;;;;;30.58;24.08;;;;;;;7.96;83.41;102462.47;5301461;28;20368;-72
2022/12/01 15:06:45;;;;;;;35.28;24.92;;;;;;;7.90;83.39;102468.91;5293257;28;20025;-73
2022/12/01 15:09:18;;;;;;;50.08;36.70;;;;;;;7.79;83.47;102463.09;5282266;28;20024;-72
2022/12/01 15:11:58;;;;;;;37.38;25.35;;;;;;;7.72;83.31;102456.84;5302381;28;20042;-72
2022/12/01 15:14:44;;;;;;;35.08;25.67;;;;;;;7.81;83.62;102460.13;5292322;28;20043;-73
2022/12/01 15:17:33;;;;;;;29.45;22.98;;;;;;;7.88;84.18;102458.13;5303342;28;20028;-76
2022/12/01 15:20:29;;;;;;;48.17;35.75;;;;;;;7.86;84.55;102470.47;5285225;28;20035;-75
2022/12/01 15:23:11;;;;;;;41.50;26.92;;;;;;;7.96;84.09;102468.00;5295806;28;20067;-72
2022/12/01 15:25:44;;;;;;;39.80;28.50;;;;;;;7.90;84.19;102480.84;5282700;28;20025;-71
2022/12/01 15:28:27;;;;;;;32.05;24.08;;;;;;;7.81;84.71;102476.69;5298945;28;20027;-75
2022/12/01 15:31:03;;;;;;;30.50;23.23;;;;;;;7.91;84.93;102484.44;5307221;28;20110;-75
2022/12/01 15:33:37;;;;;;;32.50;24.83;;;;;;;7.82;84.63;102487.53;5306683;28;20503;-72
2022/12/01 15:36:09;;;;;;;36.53;28.90;;;;;;;7.82;84.73;102484.75;5306793;28;20054;-73
2022/12/01 15:38:42;;;;;;;33.72;25.73;;;;;;;7.78;84.66;102483.53;5305547;28;20031;-72
2022/12/01 15:41:18;;;;;;;32.50;25.00;;;;;;;7.80;84.94;102486.91;5307280;28;20058;-71
2022/12/01 15:43:58;;;;;;;33.13;25.60;;;;;;;7.57;85.47;102487.59;5306812;28;20020;-72
2022/12/01 15:46:31;;;;;;;35.42;25.67;;;;;;;7.74;85.83;102490.56;5286230;28;20050;-74
2022/12/01 15:49:31;;;;;;;36.55;26.38;;;;;;;7.72;85.51;102497.41;5303922;28;20036;-73
2022/12/01 15:52:11;;;;;;;34.78;25.17;;;;;;;7.73;85.14;102488.88;5298170;28;20047;-72
2022/12/01 15:54:46;;;;;;;35.50;25.67;;;;;;;7.69;85.10;102492.34;5307130;28;20395;-73
2022/12/01 15:57:19;;;;;;;;;;;;;;;7.82;85.65;102479.22;5306446;28;20365;-73
2022/12/01 15:59:54;;;;;;;36.50;28.40;;;;;;;7.70;85.19;102481.06;5307148;28;19916;-72
2022/12/01 16:02:31;;;;;;;36.13;27.30;;;;;;;7.80;84.86;102481.38;5306402;28;20540;-72
2022/12/01 16:05:06;;;;;;;33.17;24.58;;;;;;;7.76;84.20;102482.06;5304885;28;20036;-72
2022/12/01 16:07:37;;;;;;;31.60;24.95;;;;;;;7.73;84.41;102471.47;5306633;28;20063;-71
2022/12/01 16:10:30;;;;;;;35.15;26.52;;;;;;;7.77;84.69;102481.84;5306376;28;20044;-71
2022/12/01 16:13:39;;;;;;;36.00;26.27;;;;;;;7.78;85.17;102483.53;5306155;28;20363;-73
2022/12/01 16:16:40;;;;;;;34.45;25.40;;;;;;;7.85;84.69;102486.22;5306273;28;20056;-76
2022/12/01 16:19:13;;;;;;;35.42;26.58;;;;;;;7.78;85.22;102483.53;5305878;28;20132;-70
2022/12/01 16:22:09;;;;;;;38.03;26.52;;;;;;;7.97;88.47;102477.97;5306472;28;20032;-69
2022/12/01 16:24:50;;;;;;;30.67;24.13;;;;;;;8.06;87.17;102484.88;5305525;28;20032;-69
2022/12/01 16:27:29;;;;;;;25.02;19.33;;;;;;;8.56;94.46;102495.66;5304586;28;20028;-69
2022/12/01 16:30:03;;;;;;;29.52;23.17;;;;;;;8.66;95.57;102498.69;5295659;28;20024;-67
2022/12/01 16:32:38;;;;;;;48.15;36.22;;;;;;;8.32;90.58;102493.88;5289420;28;20020;-67
2022/12/01 16:35:25;;;;;;;43.88;31.83;;;;;;;8.34;87.95;102498.09;5302931;28;20118;-67
2022/12/01 16:37:57;;;;;;;35.80;27.05;;;;;;;8.40;87.76;102499.09;5306098;28;20486;-68
